sensor_id;sensor_type;location;lat;lon;timestamp;pressure;altitude;pressure_sealevel;temperature;humidity
81151;BME280;70629;-26.026;27.976;2024-03-08T00:00:22;86517.66;;;19.77;84.79
81151;BME280;70629;-26.026;27.976;2024-03-08T00:01:01;86511.53;;;19.79;85.52
81151;BME280;70629;-26.026;27.976;2024-03-08T00:01:42;86513.50;;;20.16;85.20
81151;BME280;70629;-26.026;27.976;2024-03-08T00:02:24;86520.47;;;20.25;83.40
81151;BME280;70629;-26.026;27.976;2024-03-08T00:03:04;86518.91;;;20.12;83.70
81151;BME280;70629;-26.026;27.976;2024-03-08T00:03:44;86515.53;;;20.13;83.75
81151;BME280;70629;-26.026;27.976;2024-03-08T00:04:24;86516.50;;;19.90;84.14
81151;BME280;70629;-26.026;27.976;2024-03-08T00:05:05;86508.91;;;19.85;84.62
81151;BME280;70629;-26.026;27.976;2024-03-08T00:05:45;86519.59;;;20.12;83.96
81151;BME280;70629;-26.026;27.976;2024-03-08T00:06:25;86515.72;;;20.26;83.08
81151;BME280;70629;-26.026;27.976;2024-03-08T00:07:05;86513.03;;;20.28;82.51
81151;BME280;70629;-26.026;27.976;2024-03-08T00:07:46;86515.94;;;20.38;81.99
81151;BME280;70629;-26.026;27.976;2024-03-08T00:08:26;86506.06;;;20.21;83.15
81151;BME280;70629;-26.026;27.976;2024-03-08T00:09:05;86511.75;;;20.33;83.06
81151;BME280;70629;-26.026;27.976;2024-03-08T00:09:47;86516.19;;;20.56;81.47
81151;BME280;70629;-26.026;27.976;2024-03-08T00:10:27;86517.66;;;20.61;80.28
81151;BME280;70629;-26.026;27.976;2024-03-08T00:11:08;86523.59;;;20.47;80.01
81151;BME280;70629;-26.026;27.976;2024-03-08T00:11:47;86526.09;;;20.33;81.04
81151;BME280;70629;-26.026;27.976;2024-03-08T00:12:29;86523.16;;;20.21;81.89
81151;BME280;70629;-26.026;27.976;2024-03-08T00:13:09;86517.00;;;20.21;82.50
81151;BME280;70629;-26.026;27.976;2024-03-08T00:13:49;86521.31;;;20.32;81.96
81151;BME280;70629;-26.026;27.976;2024-03-08T00:14:29;86518.25;;;20.13;82.47
81151;BME280;70629;-26.026;27.976;2024-03-08T00:15:10;86514.03;;;20.04;83.25
81151;BME280;70629;-26.026;27.976;2024-03-08T00:15:55;86513.69;;;19.84;84.03
81151;BME280;70629;-26.026;27.976;2024-03-08T00:16:36;86509.53;;;19.81;84.51
81151;BME280;70629;-26.026;27.976;2024-03-08T00:17:16;86495.03;;;19.70;85.20
81151;BME280;70629;-26.026;27.976;2024-03-08T00:17:56;86495.72;;;19.71;85.20
81151;BME280;70629;-26.026;27.976;2024-03-08T00:18:36;86495.84;;;19.79;85.08
81151;BME280;70629;-26.026;27.976;2024-03-08T00:19:16;86498.38;;;20.09;83.98
81151;BME280;70629;-26.026;27.976;2024-03-08T00:19:56;86505.38;;;20.20;83.06
81151;BME280;70629;-26.026;27.976;2024-03-08T00:20:37;86497.22;;;20.22;82.68
81151;BME280;70629;-26.026;27.976;2024-03-08T00:21:17;86504.53;;;20.09;83.01
81151;BME280;70629;-26.026;27.976;2024-03-08T00:21:57;86505.78;;;20.02;83.98
81151;BME280;70629;-26.026;27.976;2024-03-08T00:22:38;86509.53;;;20.23;83.20
81151;BME280;70629;-26.026;27.976;2024-03-08T00:23:18;86505.94;;;20.54;82.07
81151;BME280;70629;-26.026;27.976;2024-03-08T00:23:57;86507.25;;;20.51;81.03
81151;BME280;70629;-26.026;27.976;2024-03-08T00:24:37;86499.59;;;20.42;81.43
81151;BME280;70629;-26.026;27.976;2024-03-08T00:25:17;86498.22;;;20.41;81.88
81151;BME280;70629;-26.026;27.976;2024-03-08T00:25:58;86502.44;;;20.48;81.51
81151;BME280;70629;-26.026;27.976;2024-03-08T00:26:37;86499.75;;;20.54;81.38
81151;BME280;70629;-26.026;27.976;2024-03-08T00:27:17;86501.53;;;20.33;82.00
81151;BME280;70629;-26.026;27.976;2024-03-08T00:28:00;86493.03;;;20.61;81.97
81151;BME280;70629;-26.026;27.976;2024-03-08T00:28:40;86491.66;;;20.60;81.44
81151;BME280;70629;-26.026;27.976;2024-03-08T00:29:20;86496.88;;;20.44;81.98
81151;BME280;70629;-26.026;27.976;2024-03-08T00:30:01;86500.38;;;20.06;83.12
81151;BME280;70629;-26.026;27.976;2024-03-08T00:30:41;86491.91;;;19.88;83.97
81151;BME280;70629;-26.026;27.976;2024-03-08T00:31:22;86493.81;;;20.22;83.62
81151;BME280;70629;-26.026;27.976;2024-03-08T00:32:02;86491.31;;;20.36;83.01
81151;BME280;70629;-26.026;27.976;2024-03-08T00:32:42;86492.84;;;20.47;82.08
81151;BME280;70629;-26.026;27.976;2024-03-08T00:33:22;86498.31;;;20.49;81.63
81151;BME280;70629;-26.026;27.976;2024-03-08T00:34:02;86499.75;;;20.54;81.19
81151;BME280;70629;-26.026;27.976;2024-03-08T00:34:41;86492.31;;;20.58;80.69
81151;BME280;70629;-26.026;27.976;2024-03-08T00:35:22;86503.09;;;20.48;80.78
81151;BME280;70629;-26.026;27.976;2024-03-08T00:36:02;86503.63;;;20.39;81.08
81151;BME280;70629;-26.026;27.976;2024-03-08T00:36:43;86498.22;;;20.41;81.33
81151;BME280;70629;-26.026;27.976;2024-03-08T00:37:23;86496.19;;;20.41;81.10
81151;BME280;70629;-26.026;27.976;2024-03-08T00:38:06;86494.78;;;20.38;81.48
81151;BME280;70629;-26.026;27.976;2024-03-08T00:38:46;86496.38;;;20.55;81.39
81151;BME280;70629;-26.026;27.976;2024-03-08T00:39:26;86496.19;;;20.41;81.16
81151;BME280;70629;-26.026;27.976;2024-03-08T00:40:07;86492.31;;;20.56;80.82
81151;BME280;70629;-26.026;27.976;2024-03-08T00:40:48;86495.44;;;20.39;81.04
81151;BME280;70629;-26.026;27.976;2024-03-08T00:41:28;86491.00;;;20.17;82.21
81151;BME280;70629;-26.026;27.976;2024-03-08T00:42:08;86497.03;;;20.10;82.59
81151;BME280;70629;-26.026;27.976;2024-03-08T00:42:48;86484.84;;;20.15;82.95
81151;BME280;70629;-26.026;27.976;2024-03-08T00:43:28;86483.50;;;20.18;82.76
81151;BME280;70629;-26.026;27.976;2024-03-08T00:44:09;86484.25;;;20.23;83.00
81151;BME280;70629;-26.026;27.976;2024-03-08T00:44:49;86481.03;;;20.34;82.40
81151;BME280;70629;-26.026;27.976;2024-03-08T00:45:30;86481.19;;;20.44;81.89
81151;BME280;70629;-26.026;27.976;2024-03-08T00:46:10;86485.97;;;20.44;81.32
81151;BME280;70629;-26.026;27.976;2024-03-08T00:46:50;86486.03;;;20.48;80.90
81151;BME280;70629;-26.026;27.976;2024-03-08T00:47:32;86483.41;;;20.56;81.20
81151;BME280;70629;-26.026;27.976;2024-03-08T00:48:12;86488.84;;;20.54;80.88
81151;BME280;70629;-26.026;27.976;2024-03-08T00:48:53;86487.41;;;20.49;81.05
81151;BME280;70629;-26.026;27.976;2024-03-08T00:49:33;86482.31;;;20.29;81.84
81151;BME280;70629;-26.026;27.976;2024-03-08T00:50:13;86485.91;;;20.40;81.99
81151;BME280;70629;-26.026;27.976;2024-03-08T00:50:53;86488.78;;;20.50;81.81
81151;BME280;70629;-26.026;27.976;2024-03-08T00:51:32;86483.38;;;20.54;81.11
81151;BME280;70629;-26.026;27.976;2024-03-08T00:52:13;86483.22;;;20.42;81.54
81151;BME280;70629;-26.026;27.976;2024-03-08T00:52:53;86481.16;;;20.42;81.37
81151;BME280;70629;-26.026;27.976;2024-03-08T00:53:33;86477.94;;;20.56;80.76
81151;BME280;70629;-26.026;27.976;2024-03-08T00:54:13;86483.59;;;20.70;80.21
81151;BME280;70629;-26.026;27.976;2024-03-08T00:54:54;86480.81;;;20.66;79.59
81151;BME280;70629;-26.026;27.976;2024-03-08T00:55:34;86487.38;;;20.47;80.90
81151;BME280;70629;-26.026;27.976;2024-03-08T00:56:14;86486.06;;;20.50;80.80
81151;BME280;70629;-26.026;27.976;2024-03-08T00:56:53;86487.31;;;20.43;81.90
81151;BME280;70629;-26.026;27.976;2024-03-08T00:57:34;86481.53;;;20.25;82.37
81151;BME280;70629;-26.026;27.976;2024-03-08T00:58:15;86489.47;;;20.06;83.28
81151;BME280;70629;-26.026;27.976;2024-03-08T00:58:54;86482.84;;;19.78;83.88
81151;BME280;70629;-26.026;27.976;2024-03-08T00:59:34;86485.75;;;19.88;84.66
81151;BME280;70629;-26.026;27.976;2024-03-08T01:00:14;86485.38;;;20.05;83.55
81151;BME280;70629;-26.026;27.976;2024-03-08T01:00:54;86484.97;;;20.25;82.69
81151;BME280;70629;-26.026;27.976;2024-03-08T01:01:36;86491.34;;;20.38;81.80
81151;BME280;70629;-26.026;27.976;2024-03-08T01:02:15;86482.56;;;20.45;81.54
81151;BME280;70629;-26.026;27.976;2024-03-08T01:02:58;86487.81;;;20.31;81.91
81151;BME280;70629;-26.026;27.976;2024-03-08T01:03:39;86482.94;;;20.26;82.22
81151;BME280;70629;-26.026;27.976;2024-03-08T01:04:19;86481.63;;;20.29;81.79
81151;BME280;70629;-26.026;27.976;2024-03-08T01:04:59;86483.16;;;20.38;81.30
81151;BME280;70629;-26.026;27.976;2024-03-08T01:05:39;86489.38;;;20.42;81.30
81151;BME280;70629;-26.026;27.976;2024-03-08T01:06:19;86491.81;;;20.24;81.62
81151;BME280;70629;-26.026;27.976;2024-03-08T01:07:01;86495.34;;;20.31;82.41
81151;BME280;70629;-26.026;27.976;2024-03-08T01:07:41;86492.50;;;20.27;81.65
81151;BME280;70629;-26.026;27.976;2024-03-08T01:08:20;86492.47;;;20.25;82.10
81151;BME280;70629;-26.026;27.976;2024-03-08T01:09:00;86497.13;;;20.16;82.42
81151;BME280;70629;-26.026;27.976;2024-03-08T01:09:40;86493.63;;;20.11;82.95
81151;BME280;70629;-26.026;27.976;2024-03-08T01:10:20;86496.09;;;19.93;83.46
81151;BME280;70629;-26.026;27.976;2024-03-08T01:11:00;86495.44;;;19.95;84.34
81151;BME280;70629;-26.026;27.976;2024-03-08T01:11:40;86488.13;;;20.07;83.95
81151;BME280;70629;-26.026;27.976;2024-03-08T01:12:21;86485.59;;;20.20;82.90
81151;BME280;70629;-26.026;27.976;2024-03-08T01:13:01;86497.81;;;20.16;82.66
81151;BME280;70629;-26.026;27.976;2024-03-08T01:13:41;86495.03;;;20.12;82.62
81151;BME280;70629;-26.026;27.976;2024-03-08T01:14:21;86506.00;;;20.14;82.70
81151;BME280;70629;-26.026;27.976;2024-03-08T01:15:10;86506.25;;;20.31;82.34
81151;BME280;70629;-26.026;27.976;2024-03-08T01:15:50;86505.31;;;20.14;82.17
81151;BME280;70629;-26.026;27.976;2024-03-08T01:16:30;86510.88;;;20.22;82.04
81151;BME280;70629;-26.026;27.976;2024-03-08T01:17:12;86501.81;;;20.09;82.64
81151;BME280;70629;-26.026;27.976;2024-03-08T01:17:52;86490.16;;;20.07;82.47
81151;BME280;70629;-26.026;27.976;2024-03-08T01:18:32;86489.25;;;19.92;83.81
81151;BME280;70629;-26.026;27.976;2024-03-08T01:19:12;86485.06;;;19.87;84.44
81151;BME280;70629;-26.026;27.976;2024-03-08T01:19:53;86485.75;;;19.88;84.26
81151;BME280;70629;-26.026;27.976;2024-03-08T01:20:33;86475.81;;;20.06;84.56
81151;BME280;70629;-26.026;27.976;2024-03-08T01:21:13;86481.63;;;20.29;83.21
81151;BME280;70629;-26.026;27.976;2024-03-08T01:21:53;86484.56;;;20.41;82.25
81151;BME280;70629;-26.026;27.976;2024-03-08T01:22:36;86487.53;;;20.13;82.42
81151;BME280;70629;-26.026;27.976;2024-03-08T01:23:16;86490.47;;;20.27;81.73
81151;BME280;70629;-26.026;27.976;2024-03-08T01:23:56;86493.59;;;20.07;82.19
81151;BME280;70629;-26.026;27.976;2024-03-08T01:24:36;86494.31;;;20.10;82.63
81151;BME280;70629;-26.026;27.976;2024-03-08T01:25:16;86498.38;;;20.09;82.26
81151;BME280;70629;-26.026;27.976;2024-03-08T01:25:56;86497.00;;;20.08;82.32
81151;BME280;70629;-26.026;27.976;2024-03-08T01:26:38;86496.44;;;20.15;82.25
81151;BME280;70629;-26.026;27.976;2024-03-08T01:27:18;86492.78;;;20.43;81.07
81151;BME280;70629;-26.026;27.976;2024-03-08T01:27:58;86496.22;;;20.45;80.96
81151;BME280;70629;-26.026;27.976;2024-03-08T01:28:38;86490.75;;;20.43;80.78
81151;BME280;70629;-26.026;27.976;2024-03-08T01:29:18;86494.31;;;20.10;82.53
81151;BME280;70629;-26.026;27.976;2024-03-08T01:29:58;86489.50;;;20.08;83.03
81151;BME280;70629;-26.026;27.976;2024-03-08T01:30:39;86492.69;;;20.37;82.06
81151;BME280;70629;-26.026;27.976;2024-03-08T01:31:18;86494.50;;;20.22;81.74
81151;BME280;70629;-26.026;27.976;2024-03-08T01:31:58;86495.69;;;20.11;82.49
81151;BME280;70629;-26.026;27.976;2024-03-08T01:32:40;86497.69;;;20.08;82.26
81151;BME280;70629;-26.026;27.976;2024-03-08T01:33:26;86496.28;;;20.05;82.09
81151;BME280;70629;-26.026;27.976;2024-03-08T01:34:06;86492.25;;;20.08;82.94
81151;BME280;70629;-26.026;27.976;2024-03-08T01:34:46;86493.28;;;20.31;81.52
81151;BME280;70629;-26.026;27.976;2024-03-08T01:35:25;86497.81;;;20.16;81.73
81151;BME280;70629;-26.026;27.976;2024-03-08T01:36:06;86493.63;;;20.09;82.01
81151;BME280;70629;-26.026;27.976;2024-03-08T01:36:46;86481.31;;;20.08;82.45
81151;BME280;70629;-26.026;27.976;2024-03-08T01:37:26;86483.22;;;20.00;82.38
81151;BME280;70629;-26.026;27.976;2024-03-08T01:38:06;86484.22;;;20.19;82.12
81151;BME280;70629;-26.026;27.976;2024-03-08T01:38:46;86479.97;;;20.09;82.26
81151;BME280;70629;-26.026;27.976;2024-03-08T01:39:26;86480.47;;;19.98;82.56
81151;BME280;70629;-26.026;27.976;2024-03-08T01:40:06;86481.69;;;19.89;83.21
81151;BME280;70629;-26.026;27.976;2024-03-08T01:40:48;86480.50;;;20.00;82.84
81151;BME280;70629;-26.026;27.976;2024-03-08T01:41:28;86485.56;;;20.17;81.84
81151;BME280;70629;-26.026;27.976;2024-03-08T01:42:08;86487.81;;;20.31;81.35
81151;BME280;70629;-26.026;27.976;2024-03-08T01:42:51;86489.91;;;20.35;80.60
81151;BME280;70629;-26.026;27.976;2024-03-08T01:43:30;86495.44;;;20.37;80.40
81151;BME280;70629;-26.026;27.976;2024-03-08T01:44:10;86489.41;;;20.46;80.21
81151;BME280;70629;-26.026;27.976;2024-03-08T01:44:50;86495.63;;;20.51;80.19
81151;BME280;70629;-26.026;27.976;2024-03-08T01:45:30;86492.25;;;20.52;79.63
81151;BME280;70629;-26.026;27.976;2024-03-08T01:46:15;86486.50;;;20.34;80.42
81151;BME280;70629;-26.026;27.976;2024-03-08T01:46:56;86489.03;;;20.22;81.11
81151;BME280;70629;-26.026;27.976;2024-03-08T01:47:37;86486.84;;;20.12;81.22
81151;BME280;70629;-26.026;27.976;2024-03-08T01:48:18;86485.50;;;20.13;81.07
81151;BME280;70629;-26.026;27.976;2024-03-08T01:48:59;86490.53;;;20.29;81.42
81151;BME280;70629;-26.026;27.976;2024-03-08T01:49:40;86485.59;;;20.20;80.75
81151;BME280;70629;-26.026;27.976;2024-03-08T01:50:21;86486.19;;;20.16;80.87
81151;BME280;70629;-26.026;27.976;2024-03-08T01:51:01;86482.28;;;20.27;80.55
81151;BME280;70629;-26.026;27.976;2024-03-08T01:51:41;86484.16;;;20.14;80.35
81151;BME280;70629;-26.026;27.976;2024-03-08T01:52:23;86489.72;;;20.23;80.75
81151;BME280;70629;-26.026;27.976;2024-03-08T01:53:05;86483.44;;;20.14;80.67
81151;BME280;70629;-26.026;27.976;2024-03-08T01:53:46;86490.13;;;20.05;81.47
81151;BME280;70629;-26.026;27.976;2024-03-08T01:54:27;86483.72;;;19.88;82.16
81151;BME280;70629;-26.026;27.976;2024-03-08T01:55:08;86488.88;;;19.70;82.45
81151;BME280;70629;-26.026;27.976;2024-03-08T01:55:49;86480.50;;;19.58;83.63
81151;BME280;70629;-26.026;27.976;2024-03-08T01:56:29;86484.50;;;19.53;84.18
81151;BME280;70629;-26.026;27.976;2024-03-08T01:57:11;86478.97;;;19.49;84.53
81151;BME280;70629;-26.026;27.976;2024-03-08T01:57:51;86483.53;;;19.38;85.01
81151;BME280;70629;-26.026;27.976;2024-03-08T01:58:32;86488.44;;;19.44;84.96
81151;BME280;70629;-26.026;27.976;2024-03-08T01:59:12;86481.84;;;19.59;84.43
81151;BME280;70629;-26.026;27.976;2024-03-08T01:59:54;86487.72;;;19.83;83.51
81151;BME280;70629;-26.026;27.976;2024-03-08T02:00:35;86483.22;;;20.00;82.35
81151;BME280;70629;-26.026;27.976;2024-03-08T02:01:16;86483.69;;;19.86;82.44
81151;BME280;70629;-26.026;27.976;2024-03-08T02:01:59;86487.59;;;19.75;83.09
81151;BME280;70629;-26.026;27.976;2024-03-08T02:02:42;86488.13;;;19.65;83.61
81151;BME280;70629;-26.026;27.976;2024-03-08T02:03:23;86492.00;;;19.54;84.09
81151;BME280;70629;-26.026;27.976;2024-03-08T02:04:04;86492.00;;;19.54;84.50
81151;BME280;70629;-26.026;27.976;2024-03-08T02:04:46;86485.88;;;19.54;84.82
81151;BME280;70629;-26.026;27.976;2024-03-08T02:05:26;86487.19;;;19.91;83.36
81151;BME280;70629;-26.026;27.976;2024-03-08T02:06:06;86485.22;;;19.95;82.93
81151;BME280;70629;-26.026;27.976;2024-03-08T02:06:49;86488.06;;;20.03;81.89
81151;BME280;70629;-26.026;27.976;2024-03-08T02:07:29;86490.19;;;20.09;81.34
81151;BME280;70629;-26.026;27.976;2024-03-08T02:08:09;86495.03;;;20.12;80.57
81151;BME280;70629;-26.026;27.976;2024-03-08T02:08:53;86494.09;;;19.98;80.93
81151;BME280;70629;-26.026;27.976;2024-03-08T02:09:33;86493.63;;;19.69;81.98
81151;BME280;70629;-26.026;27.976;2024-03-08T02:10:12;86494.41;;;19.74;82.47
81151;BME280;70629;-26.026;27.976;2024-03-08T02:10:52;86493.28;;;19.89;82.52
81151;BME280;70629;-26.026;27.976;2024-03-08T02:11:34;86497.47;;;19.94;82.02
81151;BME280;70629;-26.026;27.976;2024-03-08T02:12:15;86501.19;;;19.71;82.96
81151;BME280;70629;-26.026;27.976;2024-03-08T02:12:55;86500.66;;;19.81;83.12
81151;BME280;70629;-26.026;27.976;2024-03-08T02:13:35;86498.63;;;19.83;82.78
81151;BME280;70629;-26.026;27.976;2024-03-08T02:14:15;86502.25;;;19.54;83.58
81151;BME280;70629;-26.026;27.976;2024-03-08T02:14:55;86504.25;;;19.51;83.71
81151;BME280;70629;-26.026;27.976;2024-03-08T02:15:54;86510.09;;;19.38;84.01
81151;BME280;70629;-26.026;27.976;2024-03-08T02:16:34;86509.13;;;19.57;83.71
81151;BME280;70629;-26.026;27.976;2024-03-08T02:17:14;86511.34;;;19.68;83.25
81151;BME280;70629;-26.026;27.976;2024-03-08T02:17:54;86510.22;;;19.82;82.23
81151;BME280;70629;-26.026;27.976;2024-03-08T02:18:34;86504.59;;;19.71;81.91
81151;BME280;70629;-26.026;27.976;2024-03-08T02:19:14;86515.19;;;19.53;82.74
81151;BME280;70629;-26.026;27.976;2024-03-08T02:19:54;86509.03;;;19.53;83.07
81151;BME280;70629;-26.026;27.976;2024-03-08T02:20:37;86505.16;;;19.28;83.43
81151;BME280;70629;-26.026;27.976;2024-03-08T02:21:18;86510.38;;;19.52;83.50
81151;BME280;70629;-26.026;27.976;2024-03-08T02:21:58;86510.69;;;19.68;82.75
81151;BME280;70629;-26.026;27.976;2024-03-08T02:22:38;86512.88;;;19.40;82.94
81151;BME280;70629;-26.026;27.976;2024-03-08T02:23:21;86512.34;;;19.47;82.81
81151;BME280;70629;-26.026;27.976;2024-03-08T02:24:02;86510.16;;;19.42;83.37
81151;BME280;70629;-26.026;27.976;2024-03-08T02:24:42;86517.22;;;19.53;83.16
81151;BME280;70629;-26.026;27.976;2024-03-08T02:25:22;86507.41;;;19.78;82.34
81151;BME280;70629;-26.026;27.976;2024-03-08T02:26:02;86510.75;;;19.72;81.87
81151;BME280;70629;-26.026;27.976;2024-03-08T02:26:43;86517.22;;;19.53;82.16
81151;BME280;70629;-26.026;27.976;2024-03-08T02:27:24;86516.25;;;19.38;83.38
81151;BME280;70629;-26.026;27.976;2024-03-08T02:28:12;86515.72;;;19.46;83.43
81151;BME280;70629;-26.026;27.976;2024-03-08T02:28:53;86511.50;;;19.39;83.87
81151;BME280;70629;-26.026;27.976;2024-03-08T02:29:33;86519.41;;;19.24;84.12
81151;BME280;70629;-26.026;27.976;2024-03-08T02:30:13;86516.53;;;19.52;83.75
81151;BME280;70629;-26.026;27.976;2024-03-08T02:30:53;86516.72;;;19.62;82.48
81151;BME280;70629;-26.026;27.976;2024-03-08T02:31:36;86514.38;;;19.85;82.20
81151;BME280;70629;-26.026;27.976;2024-03-08T02:32:18;86511.06;;;19.90;80.92
81151;BME280;70629;-26.026;27.976;2024-03-08T02:32:58;86513.63;;;19.80;81.83
81151;BME280;70629;-26.026;27.976;2024-03-08T02:33:38;86512.41;;;19.89;81.00
81151;BME280;70629;-26.026;27.976;2024-03-08T02:34:18;86524.25;;;20.06;80.53
81151;BME280;70629;-26.026;27.976;2024-03-08T02:34:59;86525.88;;;19.79;80.46
81151;BME280;70629;-26.026;27.976;2024-03-08T02:35:39;86516.28;;;19.78;81.31
81151;BME280;70629;-26.026;27.976;2024-03-08T02:36:20;86525.69;;;19.69;81.58
81151;BME280;70629;-26.026;27.976;2024-03-08T02:37:01;86522.88;;;19.63;82.16
81151;BME280;70629;-26.026;27.976;2024-03-08T02:37:41;86522.06;;;19.56;82.29
81151;BME280;70629;-26.026;27.976;2024-03-08T02:38:22;86520.16;;;19.65;82.09
81151;BME280;70629;-26.026;27.976;2024-03-08T02:39:04;86522.44;;;19.79;81.45
81151;BME280;70629;-26.026;27.976;2024-03-08T02:39:47;86512.34;;;19.87;80.68
81151;BME280;70629;-26.026;27.976;2024-03-08T02:40:26;86528.53;;;19.75;80.63
81151;BME280;70629;-26.026;27.976;2024-03-08T02:41:06;86525.56;;;19.61;81.91
81151;BME280;70629;-26.026;27.976;2024-03-08T02:41:48;86524.03;;;19.52;82.43
81151;BME280;70629;-26.026;27.976;2024-03-08T02:42:27;86520.09;;;19.61;82.58
81151;BME280;70629;-26.026;27.976;2024-03-08T02:43:07;86520.41;;;19.77;81.92
81151;BME280;70629;-26.026;27.976;2024-03-08T02:43:47;86517.78;;;19.85;81.48
81151;BME280;70629;-26.026;27.976;2024-03-08T02:44:29;86521.63;;;19.70;81.64
81151;BME280;70629;-26.026;27.976;2024-03-08T02:45:09;86525.13;;;19.39;82.69
81151;BME280;70629;-26.026;27.976;2024-03-08T02:45:52;86519.50;;;19.30;83.71
81151;BME280;70629;-26.026;27.976;2024-03-08T02:46:34;86518.53;;;19.50;83.36
81151;BME280;70629;-26.026;27.976;2024-03-08T02:47:15;86524.06;;;19.54;83.29
81151;BME280;70629;-26.026;27.976;2024-03-08T02:47:54;86515.34;;;19.61;82.69
81151;BME280;70629;-26.026;27.976;2024-03-08T02:48:35;86513.69;;;19.84;81.75
81151;BME280;70629;-26.026;27.976;2024-03-08T02:49:15;86524.13;;;19.96;80.83
81151;BME280;70629;-26.026;27.976;2024-03-08T02:49:55;86512.63;;;20.03;80.22
81151;BME280;70629;-26.026;27.976;2024-03-08T02:50:35;86525.91;;;19.81;80.58
81151;BME280;70629;-26.026;27.976;2024-03-08T02:51:15;86518.50;;;19.86;80.72
81151;BME280;70629;-26.026;27.976;2024-03-08T02:51:55;86519.19;;;19.86;80.99
81151;BME280;70629;-26.026;27.976;2024-03-08T02:52:39;86515.13;;;19.89;80.94
81151;BME280;70629;-26.026;27.976;2024-03-08T02:53:21;86521.25;;;19.50;82.08
81151;BME280;70629;-26.026;27.976;2024-03-08T02:54:01;86518.50;;;19.48;82.43
81151;BME280;70629;-26.026;27.976;2024-03-08T02:54:41;86527.22;;;19.78;81.94
81151;BME280;70629;-26.026;27.976;2024-03-08T02:55:21;86533.81;;;19.65;81.30
81151;BME280;70629;-26.026;27.976;2024-03-08T02:56:00;86526.97;;;19.64;81.33
81151;BME280;70629;-26.026;27.976;2024-03-08T02:56:40;86528.59;;;19.79;81.27
81151;BME280;70629;-26.026;27.976;2024-03-08T02:57:20;86528.66;;;19.83;80.48
81151;BME280;70629;-26.026;27.976;2024-03-08T02:58:04;86526.16;;;19.95;80.03
81151;BME280;70629;-26.026;27.976;2024-03-08T02:58:43;86526.31;;;20.05;79.93
81151;BME280;70629;-26.026;27.976;2024-03-08T02:59:27;86525.06;;;20.12;79.27
81151;BME280;70629;-26.026;27.976;2024-03-08T03:00:10;86518.03;;;20.01;79.17
81151;BME280;70629;-26.026;27.976;2024-03-08T03:00:51;86527.06;;;19.68;80.36
81151;BME280;70629;-26.026;27.976;2024-03-08T03:01:31;86533.22;;;19.70;80.89
81151;BME280;70629;-26.026;27.976;2024-03-08T03:02:11;86530.03;;;19.82;80.70
81151;BME280;70629;-26.026;27.976;2024-03-08T03:02:51;86523.19;;;19.81;80.19
81151;BME280;70629;-26.026;27.976;2024-03-08T03:03:33;86529.94;;;19.78;80.21
81151;BME280;70629;-26.026;27.976;2024-03-08T03:04:13;86529.78;;;19.68;80.75
81151;BME280;70629;-26.026;27.976;2024-03-08T03:04:53;86520.38;;;19.41;82.14
81151;BME280;70629;-26.026;27.976;2024-03-08T03:05:35;86519.41;;;19.24;82.59
81151;BME280;70629;-26.026;27.976;2024-03-08T03:06:16;86524.88;;;19.26;83.54
81151;BME280;70629;-26.026;27.976;2024-03-08T03:07:00;86525.41;;;19.53;82.68
81151;BME280;70629;-26.026;27.976;2024-03-08T03:07:40;86520.84;;;19.65;81.62
81151;BME280;70629;-26.026;27.976;2024-03-08T03:08:20;86524.41;;;19.72;81.22
81151;BME280;70629;-26.026;27.976;2024-03-08T03:09:01;86532.09;;;19.46;81.59
81151;BME280;70629;-26.026;27.976;2024-03-08T03:09:41;86526.81;;;19.54;81.82
81151;BME280;70629;-26.026;27.976;2024-03-08T03:10:21;86524.41;;;19.74;81.04
81151;BME280;70629;-26.026;27.976;2024-03-08T03:11:03;86526.50;;;19.76;80.44
81151;BME280;70629;-26.026;27.976;2024-03-08T03:11:44;86523.53;;;19.63;81.14
81151;BME280;70629;-26.026;27.976;2024-03-08T03:12:24;86521.56;;;19.66;81.94
81151;BME280;70629;-26.026;27.976;2024-03-08T03:13:04;86525.84;;;19.77;81.32
81151;BME280;70629;-26.026;27.976;2024-03-08T03:13:44;86523.88;;;19.44;82.48
81151;BME280;70629;-26.026;27.976;2024-03-08T03:14:28;86525.13;;;19.39;82.94
81151;BME280;70629;-26.026;27.976;2024-03-08T03:15:08;86519.69;;;19.41;83.67
81151;BME280;70629;-26.026;27.976;2024-03-08T03:15:48;86524.81;;;19.22;83.87
81151;BME280;70629;-26.026;27.976;2024-03-08T03:16:28;86531.03;;;19.27;83.61
81151;BME280;70629;-26.026;27.976;2024-03-08T03:17:09;86530.06;;;19.46;83.76
81151;BME280;70629;-26.026;27.976;2024-03-08T03:17:50;86527.06;;;19.68;82.22
81151;BME280;70629;-26.026;27.976;2024-03-08T03:18:30;86534.69;;;19.76;81.80
81151;BME280;70629;-26.026;27.976;2024-03-08T03:19:12;86537.47;;;19.80;80.74
81151;BME280;70629;-26.026;27.976;2024-03-08T03:19:53;86538.38;;;19.54;81.73
81151;BME280;70629;-26.026;27.976;2024-03-08T03:20:32;86544.03;;;19.30;82.78
81151;BME280;70629;-26.026;27.976;2024-03-08T03:21:13;86540.66;;;19.30;83.10
81151;BME280;70629;-26.026;27.976;2024-03-08T03:21:54;86535.59;;;19.16;83.58
81151;BME280;70629;-26.026;27.976;2024-03-08T03:22:34;86539.44;;;19.03;83.70
81151;BME280;70629;-26.026;27.976;2024-03-08T03:23:14;86540.00;;;18.98;84.09
81151;BME280;70629;-26.026;27.976;2024-03-08T03:23:54;86542.06;;;18.99;84.08
81151;BME280;70629;-26.026;27.976;2024-03-08T03:24:34;86544.78;;;18.99;84.16
81151;BME280;70629;-26.026;27.976;2024-03-08T03:25:15;86543.38;;;18.96;84.27
81151;BME280;70629;-26.026;27.976;2024-03-08T03:26:02;86549.28;;;19.18;83.86
81151;BME280;70629;-26.026;27.976;2024-03-08T03:26:42;86546.94;;;19.39;82.98
81151;BME280;70629;-26.026;27.976;2024-03-08T03:27:22;86546.47;;;19.48;81.79
81151;BME280;70629;-26.026;27.976;2024-03-08T03:28:03;86549.91;;;19.49;80.96
81151;BME280;70629;-26.026;27.976;2024-03-08T03:28:43;86550.19;;;19.65;80.85
81151;BME280;70629;-26.026;27.976;2024-03-08T03:29:23;86555.06;;;19.70;80.62
81151;BME280;70629;-26.026;27.976;2024-03-08T03:30:05;86548.97;;;19.72;80.66